»·PEaware :: AAY217 KLAS-KIWA

AAY217 :: KLAS-KIWA

FLIGHT INFORMATION

Flight Status: Arrived
Operator:
Allegiant Air
More flights by this operator :: More flights under this callsign
Pilot: Chandler S. (807)
Aircraft: AIRBUS A319
(A319)
More flights by this aircraft type
Origin: KLAS McCarran Intl
United States
Destination: KIWA Williams Gateway
United States
More flights between these airports :: More routes between these airports
Route: PRFUM4 DRK DSERT DSERT2
File this flight plan on PilotEdge
Remarks:
Altitude:
(Current/Filed)
27,000ft
Speed:
(Current/Filed)
400kts
Departed: 18-May-20 04:02 PM
Arrived: 18-May-20 04:58 PM
Distance/Time
Traveled:
239nm/0:55
Distance/Time
To Go:
Arrived

Flight Plot

Page will automatically refresh every two minutes.


Map Options




Map Legend


Flown Route
Filed Route
Departure Airport
Arrival Airport
Navaid (VOR, NDB)
Fix

Horizontal Profiles

Position Reports

Time Latitude Longitude Heading Altitude Ground
Speed
18-May-20 15:34 36.084757 -115.152447 52 2150ft 0kts
18-May-20 15:35 36.084757 -115.152447 52 2150ft 0kts
18-May-20 15:36 36.084757 -115.152447 52 2150ft 0kts
18-May-20 15:37 36.084757 -115.152447 52 2150ft 0kts
18-May-20 15:38 36.084757 -115.152447 52 2150ft 0kts
18-May-20 15:39 36.084757 -115.152447 52 2150ft 0kts
18-May-20 15:41 36.084757 -115.152447 52 2150ft 0kts
18-May-20 15:42 36.084757 -115.152447 52 2150ft 0kts
18-May-20 15:43 36.084757 -115.152447 52 2150ft 0kts
18-May-20 15:44 36.084757 -115.152447 52 2150ft 0kts
18-May-20 15:45 36.084757 -115.152447 52 2150ft 0kts
18-May-20 15:46 36.084757 -115.152447 52 2150ft 0kts
18-May-20 15:47 36.084757 -115.152447 52 2150ft 0kts
18-May-20 15:48 36.084757 -115.152447 52 2150ft 0kts
18-May-20 15:49 36.084757 -115.152447 52 2150ft 0kts
18-May-20 15:50 36.084757 -115.152447 52 2150ft 0kts
18-May-20 15:51 36.084663 -115.152658 46 2150ft 2kts
18-May-20 15:52 36.084521 -115.153303 133 2150ft 2kts
18-May-20 15:53 36.084771 -115.153413 180 2150ft 0kts
18-May-20 15:54 36.084770 -115.153413 180 2150ft 0kts
18-May-20 15:55 36.083501 -115.155284 246 2150ft 0kts
18-May-20 15:56 36.083501 -115.155284 246 2150ft 0kts
18-May-20 15:56 36.084806 -115.156863 334 2150ft 18kts
18-May-20 15:58 36.090709 -115.155865 24 2150ft 22kts
18-May-20 15:59 36.097020 -115.152237 23 2150ft 26kts
18-May-20 15:59 36.097999 -115.152448 296 2150ft 0kts
18-May-20 16:00 36.097999 -115.152448 296 2150ft 0kts
18-May-20 16:02 36.093603 -115.156407 204 2150ft 109kts
18-May-20 16:02 36.060983 -115.181338 207 3900ft 206kts
18-May-20 16:03 36.006749 -115.220675 239 6520ft 247kts
18-May-20 16:04 35.966217 -115.293224 201 7032ft 270kts
18-May-20 16:05 35.888366 -115.270515 165 9709ft 306kts
18-May-20 16:06 35.844471 -115.183350 105 12948ft 334kts
18-May-20 16:07 35.822590 -115.073594 101 16256ft 334kts
18-May-20 16:08 35.829566 -114.958863 91 18964ft 348kts
18-May-20 16:09 35.839355 -114.828294 90 20425ft 395kts
18-May-20 16:10 35.849297 -114.694498 91 23328ft 389kts
18-May-20 16:11 35.842460 -114.570413 131 26325ft 332kts
18-May-20 16:12 35.788837 -114.471829 131 27002ft 375kts
18-May-20 16:13 35.727107 -114.355870 129 27020ft 432kts
18-May-20 16:14 35.659086 -114.227663 130 27086ft 446kts
18-May-20 16:15 35.591099 -114.100343 130 27132ft 446kts
18-May-20 16:16 35.522789 -113.973075 130 27137ft 445kts
18-May-20 16:17 35.454380 -113.846269 130 27138ft 445kts
18-May-20 16:18 35.385864 -113.719684 130 27138ft 445kts
18-May-20 16:19 35.317364 -113.593530 129 27014ft 446kts
18-May-20 16:20 35.295199 -113.440755 84 26612ft 488kts
18-May-20 16:21 35.284484 -113.297153 119 26402ft 455kts
18-May-20 16:22 35.222782 -113.166477 139 27000ft 436kts
18-May-20 16:23 35.137642 -113.056291 139 27059ft 448kts
18-May-20 16:24 35.053089 -112.943884 138 27104ft 452kts
18-May-20 16:25 34.967493 -112.829936 137 27109ft 460kts
18-May-20 16:26 34.892992 -112.730929 136 27111ft 465kts
18-May-20 16:27 34.814288 -112.627032 136 27110ft 466kts
18-May-20 16:28 34.726918 -112.510697 133 27110ft 468kts
18-May-20 16:29 34.666235 -112.368451 114 27112ft 479kts
18-May-20 16:30 34.619068 -112.216800 114 26819ft 465kts
18-May-20 16:31 34.573049 -112.071511 115 25498ft 463kts
18-May-20 16:32 34.527388 -111.928153 115 23740ft 435kts
18-May-20 16:33 34.485286 -111.796707 115 21935ft 404kts
18-May-20 16:34 34.428476 -111.690560 159 20110ft 360kts
18-May-20 16:35 34.334702 -111.699069 195 18454ft 339kts
18-May-20 16:36 34.244449 -111.726713 194 16952ft 332kts
18-May-20 16:37 34.155810 -111.753524 194 15448ft 325kts
18-May-20 16:38 34.069491 -111.779584 194 14138ft 312kts
18-May-20 16:39 33.984370 -111.778784 152 13998ft 325kts
18-May-20 16:40 33.910851 -111.717673 148 12496ft 317kts
18-May-20 16:41 33.838555 -111.657510 148 10988ft 310kts
18-May-20 16:42 33.769926 -111.600496 148 9486ft 292kts
18-May-20 16:43 33.704732 -111.546415 148 7982ft 278kts
18-May-20 16:44 33.642088 -111.494558 148 7015ft 272kts
18-May-20 16:45 33.579668 -111.442945 148 7011ft 273kts
18-May-20 16:46 33.515959 -111.393030 164 7003ft 269kts
18-May-20 16:47 33.448581 -111.419090 212 7019ft 265kts
18-May-20 16:48 33.386691 -111.467172 208 7022ft 264kts
18-May-20 16:49 33.314433 -111.469906 154 6424ft 271kts
18-May-20 16:50 33.252791 -111.421315 149 4968ft 261kts
18-May-20 16:51 33.190537 -111.387390 199 4024ft 234kts
18-May-20 16:52 33.170914 -111.452400 289 4032ft 249kts
18-May-20 16:53 33.199679 -111.525457 298 3425ft 241kts
18-May-20 16:54 33.244675 -111.580579 309 2847ft 220kts
18-May-20 16:55 33.280658 -111.622666 307 1873ft 145kts
18-May-20 16:56 33.307914 -111.654626 314 1390ft 88kts
18-May-20 16:57 33.307400 -111.659882 223 1390ft 30kts
18-May-20 16:58 33.306814 -111.667535 240 1390ft 11kts
18-May-20 16:59 33.306741 -111.668222 270 1390ft 0kts
18-May-20 17:00 33.306741 -111.668222 270 1390ft 0kts
18-May-20 17:01 33.306741 -111.668222 270 1390ft 0kts
18-May-20 17:02 33.306741 -111.668222 270 1390ft 0kts

Navigation Log

Ident Type
Flight plan parsing failed, navigation log unavailable